sensor_id;sensor_type;location;lat;lon;timestamp;temperature;humidity
42907;DHT22;28552;51.146;6.576;2022-08-21T00:00:31;16.60;99.90
42907;DHT22;28552;51.146;6.576;2022-08-21T00:03:32;16.60;99.90
42907;DHT22;28552;51.146;6.576;2022-08-21T00:06:33;16.70;99.90
42907;DHT22;28552;51.146;6.576;2022-08-21T00:09:34;16.70;99.90
42907;DHT22;28552;51.146;6.576;2022-08-21T00:12:35;16.60;99.90
42907;DHT22;28552;51.146;6.576;2022-08-21T00:15:36;16.40;99.90
42907;DHT22;28552;51.146;6.576;2022-08-21T00:18:37;16.30;99.90
42907;DHT22;28552;51.146;6.576;2022-08-21T00:21:38;16.20;99.90
42907;DHT22;28552;51.146;6.576;2022-08-21T00:24:39;16.20;99.90
42907;DHT22;28552;51.146;6.576;2022-08-21T00:27:40;16.20;99.90
42907;DHT22;28552;51.146;6.576;2022-08-21T00:30:43;16.20;99.90
42907;DHT22;28552;51.146;6.576;2022-08-21T00:33:44;16.20;99.90
42907;DHT22;28552;51.146;6.576;2022-08-21T00:36:45;16.20;99.90
42907;DHT22;28552;51.146;6.576;2022-08-21T00:39:46;16.20;99.90
42907;DHT22;28552;51.146;6.576;2022-08-21T00:42:47;16.20;99.90
42907;DHT22;28552;51.146;6.576;2022-08-21T00:45:49;16.20;99.90
42907;DHT22;28552;51.146;6.576;2022-08-21T00:48:50;16.20;99.90
42907;DHT22;28552;51.146;6.576;2022-08-21T00:51:54;16.20;99.90
42907;DHT22;28552;51.146;6.576;2022-08-21T00:54:57;16.20;99.90
42907;DHT22;28552;51.146;6.576;2022-08-21T00:58:00;16.20;99.90
42907;DHT22;28552;51.146;6.576;2022-08-21T01:01:04;16.20;99.90
42907;DHT22;28552;51.146;6.576;2022-08-21T01:04:05;16.30;99.90
42907;DHT22;28552;51.146;6.576;2022-08-21T01:07:05;16.30;99.90
42907;DHT22;28552;51.146;6.576;2022-08-21T01:10:07;16.30;99.90
42907;DHT22;28552;51.146;6.576;2022-08-21T01:13:10;16.30;99.90
42907;DHT22;28552;51.146;6.576;2022-08-21T01:16:13;16.30;99.90
42907;DHT22;28552;51.146;6.576;2022-08-21T01:19:16;16.30;99.90
42907;DHT22;28552;51.146;6.576;2022-08-21T01:22:18;16.30;99.90
42907;DHT22;28552;51.146;6.576;2022-08-21T01:25:19;16.30;99.90
42907;DHT22;28552;51.146;6.576;2022-08-21T01:28:22;16.20;99.90
42907;DHT22;28552;51.146;6.576;2022-08-21T01:31:25;16.20;99.90
42907;DHT22;28552;51.146;6.576;2022-08-21T01:34:25;16.10;99.90
42907;DHT22;28552;51.146;6.576;2022-08-21T01:37:26;16.10;99.90
42907;DHT22;28552;51.146;6.576;2022-08-21T01:40:27;16.00;99.90
42907;DHT22;28552;51.146;6.576;2022-08-21T01:43:27;16.00;99.90
42907;DHT22;28552;51.146;6.576;2022-08-21T01:46:28;16.00;99.90
42907;DHT22;28552;51.146;6.576;2022-08-21T01:49:28;16.00;99.90
42907;DHT22;28552;51.146;6.576;2022-08-21T01:52:29;16.00;99.90
42907;DHT22;28552;51.146;6.576;2022-08-21T01:55:29;15.90;99.90
42907;DHT22;28552;51.146;6.576;2022-08-21T01:58:30;15.80;99.90
42907;DHT22;28552;51.146;6.576;2022-08-21T02:01:31;15.70;99.90
42907;DHT22;28552;51.146;6.576;2022-08-21T02:04:32;15.60;99.90
42907;DHT22;28552;51.146;6.576;2022-08-21T02:07:43;15.60;99.90
42907;DHT22;28552;51.146;6.576;2022-08-21T02:10:44;15.60;99.90
42907;DHT22;28552;51.146;6.576;2022-08-21T02:13:47;15.60;99.90
42907;DHT22;28552;51.146;6.576;2022-08-21T02:16:47;15.70;99.90
42907;DHT22;28552;51.146;6.576;2022-08-21T02:19:48;15.70;99.90
42907;DHT22;28552;51.146;6.576;2022-08-21T02:22:48;15.60;99.90
42907;DHT22;28552;51.146;6.576;2022-08-21T02:25:49;15.50;99.90
42907;DHT22;28552;51.146;6.576;2022-08-21T02:28:50;15.40;99.90
42907;DHT22;28552;51.146;6.576;2022-08-21T02:31:50;15.40;99.90
42907;DHT22;28552;51.146;6.576;2022-08-21T02:34:51;15.40;99.90
42907;DHT22;28552;51.146;6.576;2022-08-21T02:37:55;15.40;99.90
42907;DHT22;28552;51.146;6.576;2022-08-21T02:40:56;15.40;99.90
42907;DHT22;28552;51.146;6.576;2022-08-21T02:43:57;15.40;99.90
42907;DHT22;28552;51.146;6.576;2022-08-21T02:46:58;15.40;99.90
42907;DHT22;28552;51.146;6.576;2022-08-21T02:49:58;15.30;99.90
42907;DHT22;28552;51.146;6.576;2022-08-21T02:52:59;15.30;99.90
42907;DHT22;28552;51.146;6.576;2022-08-21T02:56:02;15.30;99.90
42907;DHT22;28552;51.146;6.576;2022-08-21T02:59:03;15.40;99.90
42907;DHT22;28552;51.146;6.576;2022-08-21T03:02:04;15.30;99.90
42907;DHT22;28552;51.146;6.576;2022-08-21T03:05:06;15.30;99.90
42907;DHT22;28552;51.146;6.576;2022-08-21T03:08:10;15.30;99.90
42907;DHT22;28552;51.146;6.576;2022-08-21T03:11:12;15.20;99.90
42907;DHT22;28552;51.146;6.576;2022-08-21T03:14:12;15.20;99.90
42907;DHT22;28552;51.146;6.576;2022-08-21T03:17:13;15.20;99.90
42907;DHT22;28552;51.146;6.576;2022-08-21T03:20:16;15.20;99.90
42907;DHT22;28552;51.146;6.576;2022-08-21T03:23:17;15.20;99.90
42907;DHT22;28552;51.146;6.576;2022-08-21T03:26:18;15.10;99.90
42907;DHT22;28552;51.146;6.576;2022-08-21T03:29:19;15.00;99.90
42907;DHT22;28552;51.146;6.576;2022-08-21T03:32:19;14.90;99.90
42907;DHT22;28552;51.146;6.576;2022-08-21T03:35:20;14.80;99.90
42907;DHT22;28552;51.146;6.576;2022-08-21T03:38:21;14.70;99.90
42907;DHT22;28552;51.146;6.576;2022-08-21T03:41:22;14.70;99.90
42907;DHT22;28552;51.146;6.576;2022-08-21T03:44:22;14.70;99.90
42907;DHT22;28552;51.146;6.576;2022-08-21T03:47:23;14.70;99.90
42907;DHT22;28552;51.146;6.576;2022-08-21T03:50:28;14.80;99.90
42907;DHT22;28552;51.146;6.576;2022-08-21T03:53:30;14.80;99.90
42907;DHT22;28552;51.146;6.576;2022-08-21T03:56:30;14.90;99.90
42907;DHT22;28552;51.146;6.576;2022-08-21T03:59:31;14.90;99.90
42907;DHT22;28552;51.146;6.576;2022-08-21T04:02:31;14.90;99.90
42907;DHT22;28552;51.146;6.576;2022-08-21T04:05:33;15.00;99.90
42907;DHT22;28552;51.146;6.576;2022-08-21T04:08:34;15.10;99.90
42907;DHT22;28552;51.146;6.576;2022-08-21T04:11:35;15.10;99.90
42907;DHT22;28552;51.146;6.576;2022-08-21T04:14:35;15.10;99.90
42907;DHT22;28552;51.146;6.576;2022-08-21T04:17:36;15.20;99.90
42907;DHT22;28552;51.146;6.576;2022-08-21T04:20:37;15.20;99.90
42907;DHT22;28552;51.146;6.576;2022-08-21T04:23:38;15.20;99.90
42907;DHT22;28552;51.146;6.576;2022-08-21T04:26:38;15.10;99.90
42907;DHT22;28552;51.146;6.576;2022-08-21T04:29:39;15.10;99.90
42907;DHT22;28552;51.146;6.576;2022-08-21T04:32:43;15.00;99.90
42907;DHT22;28552;51.146;6.576;2022-08-21T04:35:44;14.90;99.90
42907;DHT22;28552;51.146;6.576;2022-08-21T04:38:44;14.90;99.90
42907;DHT22;28552;51.146;6.576;2022-08-21T04:41:45;14.90;99.90
42907;DHT22;28552;51.146;6.576;2022-08-21T04:44:47;14.90;99.90
42907;DHT22;28552;51.146;6.576;2022-08-21T04:47:51;14.90;99.90
42907;DHT22;28552;51.146;6.576;2022-08-21T04:51:11;14.80;99.90
42907;DHT22;28552;51.146;6.576;2022-08-21T04:54:20;14.80;99.90
42907;DHT22;28552;51.146;6.576;2022-08-21T04:57:21;14.80;99.90
42907;DHT22;28552;51.146;6.576;2022-08-21T05:00:23;14.90;99.90
42907;DHT22;28552;51.146;6.576;2022-08-21T05:03:24;14.80;99.90
42907;DHT22;28552;51.146;6.576;2022-08-21T05:06:28;14.90;99.90
42907;DHT22;28552;51.146;6.576;2022-08-21T05:09:30;14.90;99.90
42907;DHT22;28552;51.146;6.576;2022-08-21T05:12:31;14.90;99.90
42907;DHT22;28552;51.146;6.576;2022-08-21T05:15:33;14.90;99.90
42907;DHT22;28552;51.146;6.576;2022-08-21T05:18:34;14.90;99.90
42907;DHT22;28552;51.146;6.576;2022-08-21T05:21:36;14.90;99.90
42907;DHT22;28552;51.146;6.576;2022-08-21T05:24:37;14.90;99.90
42907;DHT22;28552;51.146;6.576;2022-08-21T05:27:38;14.90;99.90
42907;DHT22;28552;51.146;6.576;2022-08-21T05:30:39;15.00;99.90
42907;DHT22;28552;51.146;6.576;2022-08-21T05:33:41;15.00;99.90
42907;DHT22;28552;51.146;6.576;2022-08-21T05:36:41;15.00;99.90
42907;DHT22;28552;51.146;6.576;2022-08-21T05:39:42;15.00;99.90
42907;DHT22;28552;51.146;6.576;2022-08-21T05:42:42;15.00;99.90
42907;DHT22;28552;51.146;6.576;2022-08-21T05:45:43;15.00;99.90
42907;DHT22;28552;51.146;6.576;2022-08-21T05:48:44;15.10;99.90
42907;DHT22;28552;51.146;6.576;2022-08-21T05:51:44;15.20;99.90
42907;DHT22;28552;51.146;6.576;2022-08-21T05:54:45;15.20;99.90
42907;DHT22;28552;51.146;6.576;2022-08-21T05:57:45;15.30;99.90
42907;DHT22;28552;51.146;6.576;2022-08-21T06:00:47;15.40;99.90
42907;DHT22;28552;51.146;6.576;2022-08-21T06:03:48;15.50;99.90
42907;DHT22;28552;51.146;6.576;2022-08-21T06:06:48;15.60;99.90
42907;DHT22;28552;51.146;6.576;2022-08-21T06:09:49;15.70;99.90
42907;DHT22;28552;51.146;6.576;2022-08-21T06:12:53;15.90;99.90
42907;DHT22;28552;51.146;6.576;2022-08-21T06:16:05;16.00;99.90
42907;DHT22;28552;51.146;6.576;2022-08-21T06:19:06;16.10;99.90
42907;DHT22;28552;51.146;6.576;2022-08-21T06:22:07;16.30;99.90
42907;DHT22;28552;51.146;6.576;2022-08-21T06:25:08;16.40;99.90
42907;DHT22;28552;51.146;6.576;2022-08-21T06:28:10;16.50;99.90
42907;DHT22;28552;51.146;6.576;2022-08-21T06:31:13;16.60;99.90
42907;DHT22;28552;51.146;6.576;2022-08-21T06:34:15;16.70;99.90
42907;DHT22;28552;51.146;6.576;2022-08-21T06:37:15;16.80;99.90
42907;DHT22;28552;51.146;6.576;2022-08-21T06:40:16;16.90;99.90
42907;DHT22;28552;51.146;6.576;2022-08-21T06:43:17;17.00;99.90
42907;DHT22;28552;51.146;6.576;2022-08-21T06:46:17;17.10;99.90
42907;DHT22;28552;51.146;6.576;2022-08-21T06:49:18;17.10;99.90
42907;DHT22;28552;51.146;6.576;2022-08-21T06:52:18;17.10;99.90
42907;DHT22;28552;51.146;6.576;2022-08-21T06:55:19;17.10;99.90
42907;DHT22;28552;51.146;6.576;2022-08-21T06:58:20;17.20;99.90
42907;DHT22;28552;51.146;6.576;2022-08-21T07:01:24;17.20;99.90
42907;DHT22;28552;51.146;6.576;2022-08-21T07:04:24;17.30;99.90
42907;DHT22;28552;51.146;6.576;2022-08-21T07:07:25;17.40;99.90
42907;DHT22;28552;51.146;6.576;2022-08-21T07:10:26;17.50;99.90
42907;DHT22;28552;51.146;6.576;2022-08-21T07:13:27;17.60;99.90
42907;DHT22;28552;51.146;6.576;2022-08-21T07:16:28;17.70;99.90
42907;DHT22;28552;51.146;6.576;2022-08-21T07:19:28;18.00;99.90
42907;DHT22;28552;51.146;6.576;2022-08-21T07:22:29;18.10;99.90
42907;DHT22;28552;51.146;6.576;2022-08-21T07:25:30;18.30;99.90
42907;DHT22;28552;51.146;6.576;2022-08-21T07:28:32;18.40;99.90
42907;DHT22;28552;51.146;6.576;2022-08-21T07:31:32;18.40;99.90
42907;DHT22;28552;51.146;6.576;2022-08-21T07:34:33;18.50;99.90
42907;DHT22;28552;51.146;6.576;2022-08-21T07:37:34;18.50;99.90
42907;DHT22;28552;51.146;6.576;2022-08-21T07:40:34;18.60;99.90
42907;DHT22;28552;51.146;6.576;2022-08-21T07:43:37;18.80;99.90
42907;DHT22;28552;51.146;6.576;2022-08-21T07:46:38;19.00;99.90
42907;DHT22;28552;51.146;6.576;2022-08-21T07:49:38;19.20;99.90
42907;DHT22;28552;51.146;6.576;2022-08-21T07:52:40;19.40;99.90
42907;DHT22;28552;51.146;6.576;2022-08-21T07:55:41;19.60;99.90
42907;DHT22;28552;51.146;6.576;2022-08-21T07:58:42;19.70;99.90
42907;DHT22;28552;51.146;6.576;2022-08-21T08:01:42;19.70;99.90
42907;DHT22;28552;51.146;6.576;2022-08-21T08:04:43;19.70;99.90
42907;DHT22;28552;51.146;6.576;2022-08-21T08:07:43;19.70;99.90
42907;DHT22;28552;51.146;6.576;2022-08-21T08:10:44;19.80;99.90
42907;DHT22;28552;51.146;6.576;2022-08-21T08:13:47;19.80;99.90
42907;DHT22;28552;51.146;6.576;2022-08-21T08:16:48;19.90;99.90
42907;DHT22;28552;51.146;6.576;2022-08-21T08:19:49;20.00;99.90
42907;DHT22;28552;51.146;6.576;2022-08-21T08:22:50;20.10;99.90
42907;DHT22;28552;51.146;6.576;2022-08-21T08:25:50;20.20;99.90
42907;DHT22;28552;51.146;6.576;2022-08-21T08:28:51;20.50;99.90
42907;DHT22;28552;51.146;6.576;2022-08-21T08:31:52;20.90;99.90
42907;DHT22;28552;51.146;6.576;2022-08-21T08:34:52;20.90;99.90
42907;DHT22;28552;51.146;6.576;2022-08-21T08:37:53;20.90;99.90
42907;DHT22;28552;51.146;6.576;2022-08-21T08:41:12;21.00;99.90
42907;DHT22;28552;51.146;6.576;2022-08-21T08:44:13;21.00;99.90
42907;DHT22;28552;51.146;6.576;2022-08-21T08:47:16;21.00;99.90
42907;DHT22;28552;51.146;6.576;2022-08-21T08:50:21;20.90;99.90
42907;DHT22;28552;51.146;6.576;2022-08-21T08:53:34;20.70;99.90
42907;DHT22;28552;51.146;6.576;2022-08-21T08:56:37;20.40;99.90
42907;DHT22;28552;51.146;6.576;2022-08-21T08:59:41;20.30;99.90
42907;DHT22;28552;51.146;6.576;2022-08-21T09:02:44;20.20;99.90
42907;DHT22;28552;51.146;6.576;2022-08-21T09:06:00;20.20;99.90
42907;DHT22;28552;51.146;6.576;2022-08-21T09:09:22;20.20;99.90
42907;DHT22;28552;51.146;6.576;2022-08-21T09:12:38;20.30;99.90
42907;DHT22;28552;51.146;6.576;2022-08-21T09:25:46;20.40;99.90
42907;DHT22;28552;51.146;6.576;2022-08-21T09:28:54;20.40;99.90
42907;DHT22;28552;51.146;6.576;2022-08-21T09:31:54;20.50;99.90
42907;DHT22;28552;51.146;6.576;2022-08-21T09:35:03;20.60;99.90
42907;DHT22;28552;51.146;6.576;2022-08-21T09:38:06;20.70;99.90
42907;DHT22;28552;51.146;6.576;2022-08-21T09:41:09;20.90;99.90
42907;DHT22;28552;51.146;6.576;2022-08-21T09:44:10;21.00;99.90
42907;DHT22;28552;51.146;6.576;2022-08-21T09:47:12;21.10;99.90
42907;DHT22;28552;51.146;6.576;2022-08-21T09:50:17;21.20;99.90
42907;DHT22;28552;51.146;6.576;2022-08-21T09:53:24;21.30;99.90
42907;DHT22;28552;51.146;6.576;2022-08-21T09:56:29;21.30;99.90
42907;DHT22;28552;51.146;6.576;2022-08-21T09:59:46;21.30;99.90
42907;DHT22;28552;51.146;6.576;2022-08-21T10:02:47;21.40;99.90
42907;DHT22;28552;51.146;6.576;2022-08-21T10:05:54;21.50;99.90
42907;DHT22;28552;51.146;6.576;2022-08-21T10:09:11;21.50;99.90
42907;DHT22;28552;51.146;6.576;2022-08-21T10:12:30;21.50;99.90
42907;DHT22;28552;51.146;6.576;2022-08-21T10:19:28;21.60;99.90
42907;DHT22;28552;51.146;6.576;2022-08-21T10:35:30;21.90;99.10
42907;DHT22;28552;51.146;6.576;2022-08-21T10:45:15;22.10;98.60
42907;DHT22;28552;51.146;6.576;2022-08-21T10:51:54;22.20;98.30
42907;DHT22;28552;51.146;6.576;2022-08-21T10:58:29;22.50;98.00
42907;DHT22;28552;51.146;6.576;2022-08-21T11:01:47;22.60;97.20
42907;DHT22;28552;51.146;6.576;2022-08-21T11:04:56;22.60;97.70
42907;DHT22;28552;51.146;6.576;2022-08-21T11:08:11;22.70;96.80
42907;DHT22;28552;51.146;6.576;2022-08-21T11:11:20;22.70;97.20
42907;DHT22;28552;51.146;6.576;2022-08-21T11:14:47;22.80;96.20
42907;DHT22;28552;51.146;6.576;2022-08-21T11:18:00;22.90;96.10
42907;DHT22;28552;51.146;6.576;2022-08-21T11:21:12;22.90;95.50
42907;DHT22;28552;51.146;6.576;2022-08-21T11:34:35;23.00;94.40
42907;DHT22;28552;51.146;6.576;2022-08-21T11:37:56;23.10;94.90
42907;DHT22;28552;51.146;6.576;2022-08-21T11:47:34;23.10;93.10
42907;DHT22;28552;51.146;6.576;2022-08-21T11:50:41;23.10;93.60
42907;DHT22;28552;51.146;6.576;2022-08-21T12:00:25;23.50;93.80
42907;DHT22;28552;51.146;6.576;2022-08-21T12:03:30;23.50;92.70
42907;DHT22;28552;51.146;6.576;2022-08-21T12:06:34;23.50;92.90
42907;DHT22;28552;51.146;6.576;2022-08-21T12:09:36;23.60;92.00
42907;DHT22;28552;51.146;6.576;2022-08-21T12:12:40;23.60;91.70
42907;DHT22;28552;51.146;6.576;2022-08-21T12:15:40;23.50;92.10
42907;DHT22;28552;51.146;6.576;2022-08-21T12:18:42;23.50;91.90
42907;DHT22;28552;51.146;6.576;2022-08-21T12:25:05;23.60;91.20
42907;DHT22;28552;51.146;6.576;2022-08-21T12:28:09;23.70;91.30
42907;DHT22;28552;51.146;6.576;2022-08-21T12:31:26;23.80;90.50
42907;DHT22;28552;51.146;6.576;2022-08-21T12:34:44;23.90;90.40
42907;DHT22;28552;51.146;6.576;2022-08-21T12:37:49;23.90;88.80
42907;DHT22;28552;51.146;6.576;2022-08-21T12:40:55;23.90;88.10
42907;DHT22;28552;51.146;6.576;2022-08-21T12:44:08;24.00;88.20
42907;DHT22;28552;51.146;6.576;2022-08-21T12:50:37;24.40;86.40
42907;DHT22;28552;51.146;6.576;2022-08-21T12:53:54;24.50;86.50
42907;DHT22;28552;51.146;6.576;2022-08-21T12:56:58;24.50;86.30
42907;DHT22;28552;51.146;6.576;2022-08-21T13:00:02;24.50;86.00
42907;DHT22;28552;51.146;6.576;2022-08-21T13:03:06;24.60;85.00
42907;DHT22;28552;51.146;6.576;2022-08-21T13:06:07;24.60;83.30
42907;DHT22;28552;51.146;6.576;2022-08-21T13:09:16;24.60;83.20
42907;DHT22;28552;51.146;6.576;2022-08-21T13:12:20;24.50;81.90
42907;DHT22;28552;51.146;6.576;2022-08-21T13:15:25;24.50;82.00
42907;DHT22;28552;51.146;6.576;2022-08-21T13:18:29;24.50;80.80
42907;DHT22;28552;51.146;6.576;2022-08-21T13:21:33;24.60;81.30
42907;DHT22;28552;51.146;6.576;2022-08-21T13:24:36;24.70;80.70
42907;DHT22;28552;51.146;6.576;2022-08-21T13:27:37;24.80;81.30
42907;DHT22;28552;51.146;6.576;2022-08-21T13:30:42;25.00;80.30
42907;DHT22;28552;51.146;6.576;2022-08-21T13:33:43;24.90;80.00
42907;DHT22;28552;51.146;6.576;2022-08-21T13:36:44;24.90;80.30
42907;DHT22;28552;51.146;6.576;2022-08-21T13:39:50;24.90;80.70
42907;DHT22;28552;51.146;6.576;2022-08-21T13:42:52;24.80;79.90
42907;DHT22;28552;51.146;6.576;2022-08-21T13:45:54;24.80;79.00
42907;DHT22;28552;51.146;6.576;2022-08-21T13:48:56;24.80;78.40
42907;DHT22;28552;51.146;6.576;2022-08-21T13:51:56;24.90;78.50
42907;DHT22;28552;51.146;6.576;2022-08-21T13:54:58;25.00;78.50
42907;DHT22;28552;51.146;6.576;2022-08-21T13:58:02;25.10;78.00
42907;DHT22;28552;51.146;6.576;2022-08-21T14:01:03;25.20;78.10
42907;DHT22;28552;51.146;6.576;2022-08-21T14:04:19;25.30;77.70
42907;DHT22;28552;51.146;6.576;2022-08-21T14:07:27;25.40;78.00
42907;DHT22;28552;51.146;6.576;2022-08-21T14:10:29;25.60;76.00
42907;DHT22;28552;51.146;6.576;2022-08-21T14:13:35;25.50;75.40
42907;DHT22;28552;51.146;6.576;2022-08-21T14:16:45;25.50;75.50
42907;DHT22;28552;51.146;6.576;2022-08-21T14:19:46;25.40;75.90
42907;DHT22;28552;51.146;6.576;2022-08-21T14:22:48;25.30;76.30
42907;DHT22;28552;51.146;6.576;2022-08-21T14:25:49;25.20;76.00
42907;DHT22;28552;51.146;6.576;2022-08-21T14:28:49;25.20;76.50
42907;DHT22;28552;51.146;6.576;2022-08-21T14:31:53;25.20;75.90
42907;DHT22;28552;51.146;6.576;2022-08-21T14:34:56;25.30;76.20
42907;DHT22;28552;51.146;6.576;2022-08-21T14:37:57;25.30;75.20
42907;DHT22;28552;51.146;6.576;2022-08-21T14:41:00;25.30;74.70
42907;DHT22;28552;51.146;6.576;2022-08-21T14:44:05;25.30;75.40
42907;DHT22;28552;51.146;6.576;2022-08-21T14:47:06;25.40;74.90
42907;DHT22;28552;51.146;6.576;2022-08-21T14:50:09;25.40;73.30
42907;DHT22;28552;51.146;6.576;2022-08-21T14:53:10;25.40;74.70
42907;DHT22;28552;51.146;6.576;2022-08-21T14:56:12;25.50;73.80
42907;DHT22;28552;51.146;6.576;2022-08-21T14:59:13;25.50;73.60
42907;DHT22;28552;51.146;6.576;2022-08-21T15:02:14;25.40;73.20
42907;DHT22;28552;51.146;6.576;2022-08-21T15:05:15;25.40;71.00
42907;DHT22;28552;51.146;6.576;2022-08-21T15:08:17;25.40;69.90
42907;DHT22;28552;51.146;6.576;2022-08-21T15:11:20;25.40;70.70
42907;DHT22;28552;51.146;6.576;2022-08-21T15:14:28;25.60;70.40
42907;DHT22;28552;51.146;6.576;2022-08-21T15:17:29;25.60;69.50
42907;DHT22;28552;51.146;6.576;2022-08-21T15:20:30;25.60;69.20
42907;DHT22;28552;51.146;6.576;2022-08-21T15:23:30;25.50;69.00
42907;DHT22;28552;51.146;6.576;2022-08-21T15:26:31;25.40;69.30
42907;DHT22;28552;51.146;6.576;2022-08-21T15:29:32;25.40;69.20
42907;DHT22;28552;51.146;6.576;2022-08-21T15:32:33;25.30;68.80
42907;DHT22;28552;51.146;6.576;2022-08-21T15:35:34;25.40;69.50
42907;DHT22;28552;51.146;6.576;2022-08-21T15:38:35;25.40;69.00
42907;DHT22;28552;51.146;6.576;2022-08-21T15:41:35;25.40;69.10
42907;DHT22;28552;51.146;6.576;2022-08-21T15:44:36;25.40;69.60
42907;DHT22;28552;51.146;6.576;2022-08-21T15:47:38;25.40;69.80
42907;DHT22;28552;51.146;6.576;2022-08-21T15:50:39;25.30;69.30
42907;DHT22;28552;51.146;6.576;2022-08-21T15:53:39;25.30;69.10
42907;DHT22;28552;51.146;6.576;2022-08-21T15:56:43;25.30;69.20
42907;DHT22;28552;51.146;6.576;2022-08-21T15:59:50;25.30;68.90
42907;DHT22;28552;51.146;6.576;2022-08-21T16:02:55;25.30;69.00
42907;DHT22;28552;51.146;6.576;2022-08-21T16:05:56;25.10;66.10
42907;DHT22;28552;51.146;6.576;2022-08-21T16:08:58;24.90;66.70
42907;DHT22;28552;51.146;6.576;2022-08-21T16:11:59;24.70;66.80
42907;DHT22;28552;51.146;6.576;2022-08-21T16:15:03;24.50;67.10
42907;DHT22;28552;51.146;6.576;2022-08-21T16:18:04;24.40;66.60
42907;DHT22;28552;51.146;6.576;2022-08-21T16:21:05;24.30;66.90
42907;DHT22;28552;51.146;6.576;2022-08-21T16:24:07;24.10;67.50
42907;DHT22;28552;51.146;6.576;2022-08-21T16:27:08;24.00;67.50
42907;DHT22;28552;51.146;6.576;2022-08-21T16:30:09;24.00;68.00
42907;DHT22;28552;51.146;6.576;2022-08-21T16:33:23;23.90;68.40
42907;DHT22;28552;51.146;6.576;2022-08-21T16:36:25;23.90;67.50
42907;DHT22;28552;51.146;6.576;2022-08-21T16:39:26;23.80;67.70
42907;DHT22;28552;51.146;6.576;2022-08-21T16:42:26;23.80;68.10
42907;DHT22;28552;51.146;6.576;2022-08-21T16:45:27;23.90;68.20
42907;DHT22;28552;51.146;6.576;2022-08-21T16:48:28;24.00;67.30
42907;DHT22;28552;51.146;6.576;2022-08-21T16:51:29;24.10;66.00
42907;DHT22;28552;51.146;6.576;2022-08-21T16:54:31;24.30;65.60
42907;DHT22;28552;51.146;6.576;2022-08-21T16:57:32;24.50;65.30
42907;DHT22;28552;51.146;6.576;2022-08-21T17:00:33;24.60;65.10
42907;DHT22;28552;51.146;6.576;2022-08-21T17:03:39;24.80;65.30
42907;DHT22;28552;51.146;6.576;2022-08-21T17:06:40;25.10;65.30
42907;DHT22;28552;51.146;6.576;2022-08-21T17:09:40;25.40;63.90
42907;DHT22;28552;51.146;6.576;2022-08-21T17:12:42;25.50;62.90
42907;DHT22;28552;51.146;6.576;2022-08-21T17:15:44;25.60;62.40
42907;DHT22;28552;51.146;6.576;2022-08-21T17:18:45;25.50;61.80
42907;DHT22;28552;51.146;6.576;2022-08-21T17:21:47;25.40;62.50
42907;DHT22;28552;51.146;6.576;2022-08-21T17:24:47;25.20;63.40
42907;DHT22;28552;51.146;6.576;2022-08-21T17:27:48;25.00;63.90
42907;DHT22;28552;51.146;6.576;2022-08-21T17:30:52;24.70;65.30
42907;DHT22;28552;51.146;6.576;2022-08-21T17:33:53;24.40;66.10
42907;DHT22;28552;51.146;6.576;2022-08-21T17:36:54;24.10;67.30
42907;DHT22;28552;51.146;6.576;2022-08-21T17:39:54;23.80;68.50
42907;DHT22;28552;51.146;6.576;2022-08-21T17:42:56;23.50;69.70
42907;DHT22;28552;51.146;6.576;2022-08-21T17:45:56;23.20;70.90
42907;DHT22;28552;51.146;6.576;2022-08-21T17:48:57;23.00;71.90
42907;DHT22;28552;51.146;6.576;2022-08-21T17:51:58;22.80;72.50
42907;DHT22;28552;51.146;6.576;2022-08-21T17:54:59;22.70;73.40
42907;DHT22;28552;51.146;6.576;2022-08-21T17:58:01;22.50;74.40
42907;DHT22;28552;51.146;6.576;2022-08-21T18:01:03;22.40;74.60
42907;DHT22;28552;51.146;6.576;2022-08-21T18:04:05;22.30;75.20
42907;DHT22;28552;51.146;6.576;2022-08-21T18:07:05;22.20;75.90
42907;DHT22;28552;51.146;6.576;2022-08-21T18:10:09;22.10;76.40
42907;DHT22;28552;51.146;6.576;2022-08-21T18:13:13;22.10;77.30
42907;DHT22;28552;51.146;6.576;2022-08-21T18:16:14;22.00;78.00
42907;DHT22;28552;51.146;6.576;2022-08-21T18:19:18;21.90;78.50
42907;DHT22;28552;51.146;6.576;2022-08-21T18:22:21;21.80;79.10
42907;DHT22;28552;51.146;6.576;2022-08-21T18:25:21;21.80;79.30
42907;DHT22;28552;51.146;6.576;2022-08-21T18:28:23;21.80;79.90
42907;DHT22;28552;51.146;6.576;2022-08-21T18:31:24;21.80;80.30
42907;DHT22;28552;51.146;6.576;2022-08-21T18:34:29;21.70;81.40
42907;DHT22;28552;51.146;6.576;2022-08-21T18:37:31;21.50;82.70
42907;DHT22;28552;51.146;6.576;2022-08-21T18:40:32;21.30;84.20
42907;DHT22;28552;51.146;6.576;2022-08-21T18:43:33;21.10;85.40
42907;DHT22;28552;51.146;6.576;2022-08-21T18:46:34;21.00;86.60
42907;DHT22;28552;51.146;6.576;2022-08-21T18:49:34;20.80;87.50
42907;DHT22;28552;51.146;6.576;2022-08-21T18:52:35;20.70;88.00
42907;DHT22;28552;51.146;6.576;2022-08-21T18:55:36;20.70;88.40
42907;DHT22;28552;51.146;6.576;2022-08-21T18:58:37;20.60;89.10
42907;DHT22;28552;51.146;6.576;2022-08-21T19:01:39;20.40;90.00
42907;DHT22;28552;51.146;6.576;2022-08-21T19:04:40;20.20;90.40
42907;DHT22;28552;51.146;6.576;2022-08-21T19:07:40;20.10;91.10
42907;DHT22;28552;51.146;6.576;2022-08-21T19:10:43;20.00;91.70
42907;DHT22;28552;51.146;6.576;2022-08-21T19:13:45;19.90;92.40
42907;DHT22;28552;51.146;6.576;2022-08-21T19:16:46;19.80;93.10
42907;DHT22;28552;51.146;6.576;2022-08-21T19:19:47;19.80;93.60
42907;DHT22;28552;51.146;6.576;2022-08-21T19:22:48;19.80;94.10
42907;DHT22;28552;51.146;6.576;2022-08-21T19:25:50;19.70;94.60
42907;DHT22;28552;51.146;6.576;2022-08-21T19:28:56;19.60;95.10
42907;DHT22;28552;51.146;6.576;2022-08-21T19:31:58;19.60;95.40
42907;DHT22;28552;51.146;6.576;2022-08-21T19:34:59;19.60;95.60
42907;DHT22;28552;51.146;6.576;2022-08-21T19:38:00;19.60;95.80
42907;DHT22;28552;51.146;6.576;2022-08-21T19:41:02;19.60;96.20
42907;DHT22;28552;51.146;6.576;2022-08-21T19:44:04;19.60;96.50
42907;DHT22;28552;51.146;6.576;2022-08-21T19:47:13;19.60;97.10
42907;DHT22;28552;51.146;6.576;2022-08-21T19:50:14;19.50;97.80
42907;DHT22;28552;51.146;6.576;2022-08-21T19:53:16;19.30;98.80
42907;DHT22;28552;51.146;6.576;2022-08-21T19:56:20;19.20;99.70
42907;DHT22;28552;51.146;6.576;2022-08-21T19:59:22;19.10;99.90
42907;DHT22;28552;51.146;6.576;2022-08-21T20:02:24;19.10;99.90
42907;DHT22;28552;51.146;6.576;2022-08-21T20:05:25;19.00;99.90
42907;DHT22;28552;51.146;6.576;2022-08-21T20:08:26;18.90;99.90
42907;DHT22;28552;51.146;6.576;2022-08-21T20:11:30;18.90;99.90
42907;DHT22;28552;51.146;6.576;2022-08-21T20:14:31;18.80;99.90
42907;DHT22;28552;51.146;6.576;2022-08-21T20:17:32;18.80;99.90
42907;DHT22;28552;51.146;6.576;2022-08-21T20:20:33;18.70;99.90
42907;DHT22;28552;51.146;6.576;2022-08-21T20:23:33;18.70;99.90